Time;durP1;ratioP1;P1;durP2;ratioP2;P2;SDS_P1;SDS_P2;PMS_P1;PMS_P2;Temp;Humidity;BMP_temperature;BMP_pressure;BME280_temperature;BME280_humidity;BME280_pressure;Samples;Min_cycle;Max_cycle;Signal;HPM_P1;HPM_P2
2023/04/20 00:02:06;;;;;;;2.55;1.52;;;6.50;90.90;;;;;;5027811;28;20044;-45
2023/04/20 00:04:32;;;;;;;4.00;1.48;;;6.50;90.90;;;;;;5024888;28;20045;-43
2023/04/20 00:06:58;;;;;;;7.75;2.22;;;7.00;91.10;;;;;;5035098;28;20122;-45
2023/04/20 00:09:25;;;;;;;3.92;2.10;;;6.50;90.90;;;;;;5030617;28;20057;-44
2023/04/20 00:11:51;;;;;;;6.13;1.52;;;7.10;91.00;;;;;;5030028;28;20041;-45
2023/04/20 00:14:17;;;;;;;3.58;1.98;;;7.60;91.20;;;;;;5011859;28;20820;-44
2023/04/20 00:16:42;;;;;;;3.75;1.60;;;6.80;90.90;;;;;;5029130;28;20125;-44
2023/04/20 00:19:08;;;;;;;4.32;1.60;;;7.40;91.00;;;;;;5035425;28;20045;-45
2023/04/20 00:21:34;;;;;;;5.07;2.08;;;6.90;90.80;;;;;;5029939;28;20048;-50
2023/04/20 00:24:00;;;;;;;2.95;1.65;;;6.80;90.80;;;;;;5018988;28;20770;-44
2023/04/20 00:26:26;;;;;;;5.45;1.70;;;7.10;90.90;;;;;;5036264;28;20048;-45
2023/04/20 00:28:52;;;;;;;3.83;1.65;;;7.60;91.10;;;;;;5027143;28;20124;-45
2023/04/20 00:31:18;;;;;;;4.55;1.33;;;7.30;91.10;;;;;;5014425;28;20038;-44
2023/04/20 00:33:44;;;;;;;7.03;1.67;;;7.10;91.10;;;;;;5031636;28;20033;-46
2023/04/20 00:36:10;;;;;;;5.68;1.95;;;6.90;91.30;;;;;;5029672;28;20072;-44
2023/04/20 00:38:35;;;;;;;3.00;1.45;;;6.90;91.10;;;;;;5018834;28;20044;-43
2023/04/20 00:41:01;;;;;;;7.50;1.90;;;7.60;91.40;;;;;;5029620;28;20096;-43
2023/04/20 00:43:27;;;;;;;4.20;1.38;;;7.00;91.30;;;;;;5031865;28;20121;-46
2023/04/20 00:45:53;;;;;;;3.05;1.33;;;7.10;91.30;;;;;;5023569;28;20096;-45
2023/04/20 00:48:19;;;;;;;2.85;1.23;;;7.00;91.40;;;;;;5029619;28;20051;-48
2023/04/20 00:50:46;;;;;;;7.25;1.40;;;7.70;91.60;;;;;;5011909;28;20053;-45
2023/04/20 00:53:12;;;;;;;1.85;0.90;;;7.00;91.40;;;;;;5026150;28;20048;-46
2023/04/20 00:55:38;;;;;;;3.22;1.05;;;7.10;91.40;;;;;;5035366;28;20033;-44
2023/04/20 00:58:05;;;;;;;3.55;1.05;;;6.90;91.30;;;;;;5014774;28;20044;-44
2023/04/20 01:00:32;;;;;;;2.92;1.80;;;7.10;91.40;;;;;;5023697;28;20096;-44
2023/04/20 01:02:57;;;;;;;4.15;1.20;;;7.10;91.50;;;;;;5030441;28;20130;-44
2023/04/20 01:05:24;;;;;;;4.78;1.30;;;7.10;91.50;;;;;;5029851;28;20123;-45
2023/04/20 01:07:50;;;;;;;3.50;1.35;;;7.20;91.40;;;;;;5036389;28;20716;-44
2023/04/20 01:10:16;;;;;;;3.30;1.40;;;7.20;91.40;;;;;;5012089;28;20045;-43
2023/04/20 01:12:41;;;;;;;4.90;1.52;;;7.30;91.30;;;;;;5027411;28;20128;-44
2023/04/20 01:15:08;;;;;;;6.05;1.40;;;7.30;91.20;;;;;;5027708;28;20060;-47
2023/04/20 01:17:38;;;;;;;2.38;1.10;;;7.30;91.10;;;;;;5021861;28;20040;-48
2023/04/20 01:20:10;;;;;;;5.88;1.60;;;7.40;91.10;;;;;;5031308;28;20049;-43
2023/04/20 01:22:45;;;;;;;3.83;0.98;;;7.30;91.10;;;;;;5034521;28;20059;-47
2023/04/20 01:25:11;;;;;;;7.72;1.55;;;7.30;91.10;;;;;;5018831;28;20045;-43
2023/04/20 01:27:37;;;;;;;4.45;1.15;;;7.30;91.00;;;;;;5036178;28;20075;-44
2023/04/20 01:30:02;;;;;;;4.20;0.90;;;7.70;91.00;;;;;;5033169;28;20111;-44
2023/04/20 01:32:28;;;;;;;5.32;1.23;;;7.40;90.90;;;;;;5034927;28;20087;-44
2023/04/20 01:34:54;;;;;;;5.05;1.40;;;7.40;90.80;;;;;;5032044;28;20080;-46
2023/04/20 01:37:19;;;;;;;4.18;1.05;;;8.20;91.00;;;;;;5017292;28;20082;-44
2023/04/20 01:39:45;;;;;;;2.83;0.93;;;7.40;90.70;;;;;;5030236;28;20103;-46
2023/04/20 01:42:11;;;;;;;2.67;0.95;;;7.90;90.80;;;;;;5037136;28;20044;-45
2023/04/20 01:44:37;;;;;;;3.97;1.08;;;7.30;90.70;;;;;;5036958;28;20698;-45
2023/04/20 01:47:03;;;;;;;3.67;0.80;;;7.40;90.60;;;;;;5032063;28;20122;-45
2023/04/20 01:49:29;;;;;;;3.17;1.02;;;7.40;90.50;;;;;;5033223;28;20851;-44
2023/04/20 01:51:54;;;;;;;5.88;1.00;;;7.40;90.40;;;;;;5027323;28;20041;-47
2023/04/20 01:54:20;;;;;;;3.78;1.00;;;7.80;90.50;;;;;;5026697;28;20049;-47
2023/04/20 01:56:46;;;;;;;3.97;1.00;;;7.30;90.40;;;;;;5033589;28;20041;-44
2023/04/20 01:59:12;;;;;;;3.28;1.38;;;7.30;90.40;;;;;;5028155;28;20049;-43
2023/04/20 02:01:38;;;;;;;5.50;1.38;;;7.30;90.40;;;;;;5037491;28;20056;-47
2023/04/20 02:04:04;;;;;;;5.93;1.35;;;7.70;90.60;;;;;;5030616;28;20137;-44
2023/04/20 02:06:30;;;;;;;5.80;1.20;;;7.30;90.50;;;;;;5031601;28;20048;-44
2023/04/20 02:08:56;;;;;;;6.15;1.50;;;7.90;90.80;;;;;;5036509;28;20041;-45
2023/04/20 02:11:22;;;;;;;3.90;1.30;;;7.10;90.60;;;;;;5031255;28;20083;-44
2023/04/20 02:13:47;;;;;;;3.40;0.88;;;8.10;90.80;;;;;;5030549;28;20532;-46
2023/04/20 02:16:14;;;;;;;3.20;1.08;;;7.30;90.50;;;;;;5034773;28;20146;-42
2023/04/20 02:18:40;;;;;;;5.45;1.45;;;7.50;90.50;;;;;;5027158;28;20523;-46
2023/04/20 02:21:06;;;;;;;3.95;1.10;;;7.40;90.40;;;;;;5028473;28;20029;-44
2023/04/20 02:23:31;;;;;;;3.00;0.90;;;7.20;90.40;;;;;;5035263;28;20624;-45
2023/04/20 02:25:57;;;;;;;3.60;0.95;;;7.40;90.40;;;;;;5036350;28;20040;-45
2023/04/20 02:28:23;;;;;;;3.90;0.77;;;7.20;90.50;;;;;;5037013;28;20107;-45
2023/04/20 02:30:48;;;;;;;4.72;1.00;;;7.40;90.60;;;;;;5017782;28;20088;-45
2023/04/20 02:33:14;;;;;;;4.03;0.95;;;7.40;90.60;;;;;;5029159;28;20041;-47
2023/04/20 02:35:40;;;;;;;4.85;1.27;;;7.30;90.70;;;;;;5040462;28;20804;-47
2023/04/20 02:38:05;;;;;;;5.05;0.90;;;7.30;90.70;;;;;;5032410;28;20034;-45
2023/04/20 02:40:31;;;;;;;3.95;0.98;;;7.20;90.70;;;;;;5034517;28;20041;-44
2023/04/20 02:42:57;;;;;;;4.47;1.33;;;7.90;90.90;;;;;;5016522;28;20094;-47
2023/04/20 02:45:22;;;;;;;2.47;1.00;;;6.70;90.70;;;;;;5029444;28;20049;-44
2023/04/20 02:47:48;;;;;;;4.05;1.52;;;7.30;91.10;;;;;;5032465;28;20112;-47
2023/04/20 02:50:14;;;;;;;2.30;1.00;;;7.10;91.30;;;;;;5016328;28;20056;-47
2023/04/20 02:52:40;;;;;;;5.15;1.13;;;7.90;91.30;;;;;;5031396;28;20052;-45
2023/04/20 02:55:06;;;;;;;4.40;0.80;;;7.30;91.20;;;;;;5037838;28;20079;-45
2023/04/20 02:57:32;;;;;;;7.95;1.80;;;7.10;91.30;;;;;;5020887;28;20474;-44
2023/04/20 02:59:58;;;;;;;4.97;1.10;;;7.80;91.40;;;;;;5010389;28;20044;-46
2023/04/20 03:02:23;;;;;;;7.00;0.88;;;7.10;91.20;;;;;;5032783;28;20049;-45
2023/04/20 03:04:49;;;;;;;5.25;1.75;;;7.00;91.30;;;;;;5035671;28;20056;-44
2023/04/20 03:07:16;;;;;;;2.90;0.90;;;7.00;91.10;;;;;;5017080;28;20056;-44
2023/04/20 03:09:42;;;;;;;2.20;0.80;;;6.80;91.10;;;;;;5025691;28;20045;-45
2023/04/20 03:12:08;;;;;;;2.83;0.90;;;7.10;91.00;;;;;;5024642;28;20407;-47
2023/04/20 03:14:33;;;;;;;2.20;0.82;;;7.00;90.70;;;;;;5032680;28;20091;-44
2023/04/20 03:16:59;;;;;;;1.92;0.80;;;7.20;90.00;;;;;;5026028;28;20119;-44
2023/04/20 03:19:25;;;;;;;3.30;0.85;;;7.30;89.60;;;;;;5034952;28;20049;-45
2023/04/20 03:21:50;;;;;;;3.65;0.95;;;7.30;88.60;;;;;;5035717;28;20052;-45
2023/04/20 03:24:16;;;;;;;5.57;1.70;;;7.60;88.50;;;;;;5027218;28;20041;-45
2023/04/20 03:26:42;;;;;;;2.50;0.75;;;7.40;88.20;;;;;;5028422;28;20037;-46
2023/04/20 03:29:08;;;;;;;5.55;0.93;;;7.30;88.10;;;;;;5036355;28;20037;-47
2023/04/20 03:31:33;;;;;;;4.20;1.10;;;7.30;88.10;;;;;;5016556;28;20049;-45
2023/04/20 03:33:59;;;;;;;2.63;1.10;;;7.30;88.30;;;;;;5028210;28;20143;-44
2023/04/20 03:36:27;;;;;;;2.75;0.90;;;7.30;88.50;;;;;;5031929;28;20190;-45
2023/04/20 03:38:52;;;;;;;4.55;1.38;;;7.50;88.80;;;;;;5010347;28;20095;-44
2023/04/20 03:41:18;;;;;;;3.78;0.90;;;7.20;88.60;;;;;;5037441;28;20080;-44
2023/04/20 03:43:44;;;;;;;7.25;0.90;;;7.30;88.90;;;;;;5032399;28;20064;-43
2023/04/20 03:46:09;;;;;;;5.82;0.80;;;7.20;88.90;;;;;;5012451;28;20053;-44
2023/04/20 03:48:35;;;;;;;4.03;1.42;;;7.70;89.20;;;;;;5036395;28;20044;-45
2023/04/20 03:51:01;;;;;;;6.03;0.77;;;7.10;89.40;;;;;;5025284;28;20096;-44
2023/04/20 03:53:27;;;;;;;5.07;0.93;;;7.20;89.90;;;;;;5014975;28;20045;-44
2023/04/20 03:55:54;;;;;;;4.65;1.00;;;7.10;90.10;;;;;;5027004;28;20052;-44
2023/04/20 03:58:20;;;;;;;4.32;1.23;;;5.30;89.70;;;;;;5033261;28;20133;-46
2023/04/20 04:00:47;;;;;;;3.97;1.30;;;7.20;91.90;;;;;;5032036;28;20083;-45
2023/04/20 04:03:13;;;;;;;5.20;1.50;;;6.70;93.40;;;;;;5027113;28;20045;-44
2023/04/20 04:05:40;;;;;;;2.95;1.20;;;7.60;96.00;;;;;;5012356;28;20049;-44
2023/04/20 04:08:06;;;;;;;4.65;2.15;;;6.30;97.60;;;;;;5026935;28;20103;-44
2023/04/20 04:10:31;;;;;;;3.17;1.58;;;6.30;98.80;;;;;;5029206;28;20049;-42
2023/04/20 04:12:57;;;;;;;5.72;2.05;;;6.00;99.80;;;;;;5018775;28;20197;-45
2023/04/20 04:15:23;;;;;;;4.15;1.98;;;5.80;99.90;;;;;;5034775;28;20122;-48
2023/04/20 04:17:49;;;;;;;6.72;1.75;;;6.60;99.90;;;;;;5028699;28;20729;-43
2023/04/20 04:20:14;;;;;;;5.53;1.48;;;6.10;99.90;;;;;;5026289;28;20088;-44
2023/04/20 04:22:40;;;;;;;5.25;1.88;;;5.60;99.90;;;;;;5032569;28;20084;-46
2023/04/20 04:25:07;;;;;;;6.10;2.40;;;5.10;99.90;;;;;;5029805;28;20052;-44
2023/04/20 04:27:38;;;;;;;7.47;1.85;;;5.40;99.90;;;;;;5023150;28;20836;-47
2023/04/20 04:30:05;;;;;;;4.95;2.08;;;5.30;99.90;;;;;;5032225;28;20046;-44
2023/04/20 04:32:33;;;;;;;4.90;2.25;;;5.20;99.90;;;;;;5030577;28;20083;-44
2023/04/20 04:35:00;;;;;;;4.75;2.22;;;5.10;99.90;;;;;;5030629;28;20159;-44
2023/04/20 04:37:26;;;;;;;4.05;2.05;;;5.30;99.90;;;;;;5036085;28;20048;-44
2023/04/20 04:39:51;;;;;;;4.63;2.60;;;5.00;99.90;;;;;;5028605;28;20037;-46
2023/04/20 04:42:17;;;;;;;5.65;2.42;;;5.00;99.90;;;;;;5029566;28;20048;-45
2023/04/20 04:44:43;;;;;;;5.28;2.05;;;5.00;99.90;;;;;;5023508;28;20096;-46
2023/04/20 04:47:10;;;;;;;6.30;2.00;;;4.90;99.90;;;;;;5017028;28;20045;-47
2023/04/20 04:49:36;;;;;;;4.95;2.20;;;4.90;99.90;;;;;;5030129;28;20099;-49
2023/04/20 04:52:02;;;;;;;4.10;2.05;;;4.90;99.90;;;;;;5032330;28;20527;-46
2023/04/20 04:54:28;;;;;;;6.03;2.80;;;4.90;99.90;;;;;;5036026;28;20041;-44
2023/04/20 04:56:53;;;;;;;6.32;2.47;;;4.90;99.90;;;;;;5029343;28;20061;-44
2023/04/20 04:59:19;;;;;;;5.93;2.72;;;4.90;99.90;;;;;;5019002;28;20057;-45
2023/04/20 05:01:45;;;;;;;7.78;3.15;;;5.80;99.90;;;;;;5006305;28;20076;-45
2023/04/20 05:04:11;;;;;;;5.38;2.53;;;5.00;99.90;;;;;;5025121;28;20069;-45
2023/04/20 05:06:36;;;;;;;8.50;2.88;;;5.90;99.90;;;;;;5017510;28;20088;-44
2023/04/20 05:09:03;;;;;;;5.78;2.92;;;5.00;99.90;;;;;;5014830;28;20041;-44
2023/04/20 05:11:30;;;;;;;5.95;2.88;;;5.10;99.90;;;;;;5033456;28;20887;-44
2023/04/20 05:13:56;;;;;;;7.25;2.70;;;5.50;99.90;;;;;;5019336;28;20045;-45
2023/04/20 05:16:22;;;;;;;5.88;2.60;;;5.10;99.90;;;;;;5034708;28;20052;-45
2023/04/20 05:18:47;;;;;;;8.80;2.70;;;5.10;99.90;;;;;;5037016;28;20045;-45
2023/04/20 05:21:13;;;;;;;7.28;3.05;;;5.10;99.90;;;;;;5039401;28;20068;-44
2023/04/20 05:23:39;;;;;;;7.38;2.80;;;5.20;99.90;;;;;;5022226;28;20085;-44
2023/04/20 05:26:05;;;;;;;5.82;2.45;;;5.20;99.90;;;;;;5036861;28;20045;-45
2023/04/20 05:28:33;;;;;;;4.38;1.90;;;5.30;99.90;;;;;;5035848;28;20140;-45
2023/04/20 05:30:59;;;;;;;5.38;2.13;;;5.20;99.90;;;;;;5034961;28;20095;-43
2023/04/20 05:33:25;;;;;;;7.35;2.78;;;5.20;99.90;;;;;;5039425;28;20042;-45
2023/04/20 05:35:57;;;;;;;4.43;1.80;;;5.20;99.90;;;;;;5040263;28;20175;-44
2023/04/20 05:38:24;;;;;;;;;;;5.30;99.90;;;;;;5022695;28;20045;-44
2023/04/20 05:40:49;;;;;;;6.18;1.95;;;6.20;99.90;;;;;;5041858;28;19974;-47
2023/04/20 05:43:17;;;;;;;7.88;2.20;;;6.00;99.90;;;;;;5012362;28;20053;-45
2023/04/20 05:45:43;;;;;;;4.93;1.55;;;5.30;99.90;;;;;;5032563;28;20056;-43
2023/04/20 05:48:09;;;;;;;5.05;1.90;;;5.20;99.90;;;;;;5026802;28;20041;-45
2023/04/20 05:50:35;;;;;;;3.45;1.63;;;5.30;99.90;;;;;;5036779;28;20435;-44
2023/04/20 05:53:00;;;;;;;5.05;2.20;;;5.30;99.90;;;;;;5029972;28;20033;-46
2023/04/20 05:55:26;;;;;;;3.53;1.65;;;5.30;99.90;;;;;;5040215;28;20087;-47
2023/04/20 05:57:52;;;;;;;5.30;1.65;;;5.30;99.90;;;;;;5041579;28;20050;-46
2023/04/20 06:00:19;;;;;;;4.25;2.22;;;5.20;99.90;;;;;;5041660;28;20545;-45
2023/04/20 06:02:44;;;;;;;4.38;2.20;;;5.30;99.90;;;;;;5016482;28;20443;-45
2023/04/20 06:05:10;;;;;;;3.47;1.67;;;5.50;99.90;;;;;;5037603;28;20069;-45
2023/04/20 06:07:37;;;;;;;6.93;2.15;;;5.20;99.90;;;;;;5031197;28;20045;-45
2023/04/20 06:10:03;;;;;;;4.80;1.60;;;5.10;99.90;;;;;;5017586;28;20107;-44
2023/04/20 06:12:29;;;;;;;5.00;1.75;;;5.20;99.90;;;;;;5035730;28;20107;-46
2023/04/20 06:14:59;;;;;;;8.52;3.30;;;5.10;99.90;;;;;;5043885;28;20045;-45
2023/04/20 06:17:24;;;;;;;8.38;3.42;;;5.00;99.90;;;;;;5040949;28;20044;-45
2023/04/20 06:19:50;;;;;;;7.07;2.25;;;5.00;99.90;;;;;;5032647;28;20487;-43
2023/04/20 06:22:16;;;;;;;3.83;2.05;;;4.90;99.90;;;;;;5031408;28;20048;-49
2023/04/20 06:24:42;;;;;;;4.90;2.58;;;4.80;99.90;;;;;;5036123;28;20530;-44
2023/04/20 06:27:08;;;;;;;6.68;2.95;;;5.20;99.90;;;;;;5029482;28;20037;-48
2023/04/20 06:29:34;;;;;;;9.52;3.10;;;4.70;99.90;;;;;;5030382;28;20045;-48
2023/04/20 06:32:00;;;;;;;7.28;3.38;;;4.70;99.90;;;;;;5027818;28;20545;-46
2023/04/20 06:34:25;;;;;;;8.43;3.22;;;4.60;99.90;;;;;;5031029;28;20131;-44
2023/04/20 06:36:51;;;;;;;10.02;4.07;;;5.00;99.90;;;;;;5026000;28;20041;-45
2023/04/20 06:39:17;;;;;;;8.10;3.78;;;4.60;99.90;;;;;;5037713;28;20137;-45
2023/04/20 06:41:43;;;;;;;10.10;3.83;;;4.60;99.90;;;;;;5014178;28;20042;-46
2023/04/20 06:44:09;;;;;;;8.63;3.88;;;4.60;99.90;;;;;;5031806;28;20033;-47
2023/04/20 06:46:34;;;;;;;8.77;4.05;;;4.70;99.90;;;;;;4996826;28;20137;-48
2023/04/20 06:49:00;;;;;;;8.85;3.63;;;4.50;99.90;;;;;;5023871;28;20081;-45
2023/04/20 06:51:28;;;;;;;8.30;4.00;;;5.30;99.90;;;;;;5020420;28;20041;-49
2023/04/20 06:53:57;;;;;;;9.10;4.60;;;4.50;99.90;;;;;;5020176;28;20049;-47
2023/04/20 06:56:22;;;;;;;15.82;4.93;;;4.50;99.90;;;;;;5017291;28;20041;-46
2023/04/20 06:58:48;;;;;;;12.95;5.03;;;4.90;99.90;;;;;;5018962;28;20099;-46
2023/04/20 07:01:14;;;;;;;11.45;4.45;;;4.50;99.90;;;;;;5015497;28;20041;-46
2023/04/20 07:03:40;;;;;;;12.95;4.70;;;4.50;99.90;;;;;;5012007;28;20037;-46
2023/04/20 07:06:06;;;;;;;10.32;4.70;;;4.50;99.90;;;;;;5010835;28;20173;-46
2023/04/20 07:08:32;;;;;;;10.50;5.20;;;4.50;99.90;;;;;;4998026;28;20128;-50
2023/04/20 07:10:58;;;;;;;17.42;5.38;;;4.50;99.90;;;;;;5005340;28;20054;-47
2023/04/20 07:13:24;;;;;;;8.73;4.72;;;4.40;99.90;;;;;;5006499;28;20053;-46
2023/04/20 07:15:50;;;;;;;9.18;5.00;;;4.20;99.90;;;;;;5010806;28;20033;-45
2023/04/20 07:18:16;;;;;;;9.40;4.85;;;4.70;99.90;;;;;;5009038;28;20050;-47
2023/04/20 07:20:42;;;;;;;12.23;5.13;;;5.70;99.90;;;;;;5008590;28;20461;-49
2023/04/20 07:23:07;;;;;;;10.70;5.90;;;4.90;99.90;;;;;;5012085;28;20045;-45
2023/04/20 07:25:33;;;;;;;13.43;5.45;;;4.90;99.90;;;;;;5014297;28;20038;-44
2023/04/20 07:27:59;;;;;;;9.75;5.30;;;4.90;99.90;;;;;;5015307;28;20041;-47
2023/04/20 07:30:25;;;;;;;11.45;5.50;;;5.00;99.90;;;;;;4986341;28;20390;-48
2023/04/20 07:32:50;;;;;;;10.57;5.22;;;5.00;99.90;;;;;;4992008;28;20038;-51
2023/04/20 07:35:16;;;;;;;8.50;4.90;;;4.60;99.90;;;;;;4991708;28;20073;-50
2023/04/20 07:37:54;;;;;;;10.75;5.22;;;6.10;99.90;;;;;;4949824;28;20084;-51
2023/04/20 07:41:00;;;;;;;9.05;4.35;;;5.00;99.90;;;;;;4923363;28;20053;-47
2023/04/20 07:43:45;;;;;;;10.68;5.28;;;5.10;99.90;;;;;;4927159;28;20044;-54
2023/04/20 07:46:19;;;;;;;16.58;5.78;;;5.20;99.90;;;;;;4932418;28;22531;-47
2023/04/20 07:48:55;;;;;;;11.43;5.80;;;5.30;99.90;;;;;;4957015;28;20041;-54
2023/04/20 07:51:20;;;;;;;10.75;5.25;;;5.40;99.90;;;;;;5009985;28;20032;-46
2023/04/20 07:53:52;;;;;;;9.27;5.50;;;5.50;99.90;;;;;;4969991;28;20087;-47
2023/04/20 07:56:18;;;;;;;10.80;4.93;;;7.00;99.90;;;;;;4975640;28;20038;-49
2023/04/20 07:58:56;;;;;;;10.75;5.18;;;5.40;99.90;;;;;;4932601;28;20041;-46
2023/04/20 08:05:03;;;;;;;8.93;5.43;;;5.50;99.90;;;;;;5009755;28;20027;-45
2023/04/20 08:07:29;;;;;;;10.57;5.57;;;5.60;99.90;;;;;;5004329;28;20030;-47
2023/04/20 08:09:55;;;;;;;11.05;5.63;;;5.80;99.90;;;;;;4950532;28;20199;-51
2023/04/20 08:12:22;;;;;;;11.43;5.97;;;5.90;99.90;;;;;;5012354;28;20647;-49
2023/04/20 08:14:47;;;;;;;15.88;6.05;;;6.00;99.90;;;;;;5011643;28;20172;-46
2023/04/20 08:17:13;;;;;;;16.15;6.15;;;6.00;99.90;;;;;;5007292;28;20033;-47
2023/04/20 08:19:39;;;;;;;10.70;5.47;;;6.00;99.90;;;;;;5008515;28;20072;-46
2023/04/20 08:22:05;;;;;;;13.68;6.63;;;6.10;99.90;;;;;;5006300;28;20648;-47
2023/04/20 08:24:31;;;;;;;12.20;6.72;;;7.20;99.90;;;;;;5009451;28;20959;-48
2023/04/20 08:26:58;;;;;;;12.30;6.70;;;6.20;99.90;;;;;;5010474;28;20045;-46
2023/04/20 08:29:24;;;;;;;13.55;5.88;;;6.90;99.90;;;;;;5010734;28;20800;-48
2023/04/20 08:31:50;;;;;;;10.43;6.32;;;6.20;99.90;;;;;;4989524;28;20167;-48
2023/04/20 08:34:16;;;;;;;12.35;6.22;;;6.80;99.90;;;;;;5012278;28;20097;-47
2023/04/20 08:36:42;;;;;;;13.88;7.03;;;6.10;99.90;;;;;;5012791;28;20036;-49
2023/04/20 08:39:11;;;;;;;13.02;5.60;;;7.00;99.90;;;;;;5011710;28;20434;-47
2023/04/20 08:41:37;;;;;;;13.15;5.97;;;7.00;99.90;;;;;;5017034;28;20036;-45
2023/04/20 08:44:03;;;;;;;8.57;5.38;;;6.10;99.90;;;;;;5014945;28;20025;-48
2023/04/20 08:46:29;;;;;;;10.63;6.60;;;6.00;99.90;;;;;;5014198;28;20140;-46
2023/04/20 08:48:55;;;;;;;14.23;6.93;;;6.00;99.90;;;;;;4997759;28;20045;-46
2023/04/20 08:51:23;;;;;;;10.45;5.88;;;6.00;99.90;;;;;;5014660;28;20041;-48
2023/04/20 08:53:48;;;;;;;12.50;6.00;;;6.70;99.90;;;;;;5013678;28;20033;-47
2023/04/20 08:56:14;;;;;;;11.43;5.90;;;6.10;99.90;;;;;;5015492;28;20726;-49
2023/04/20 08:58:41;;;;;;;14.07;7.50;;;6.20;99.90;;;;;;5019269;28;20460;-46
2023/04/20 09:01:11;;;;;;;12.55;6.18;;;6.30;99.90;;;;;;5015024;28;20053;-46
2023/04/20 09:03:41;;;;;;;9.13;5.88;;;6.30;99.90;;;;;;5016185;28;20037;-50
2023/04/20 09:13:58;;;;;;;9.38;5.70;;;6.30;99.90;;;;;;4856963;28;20349;-52
2023/04/20 09:16:24;;;;;;;9.65;5.82;;;6.20;99.90;;;;;;4825860;28;20045;-53
2023/04/20 09:19:12;;;;;;;10.77;6.03;;;6.20;99.90;;;;;;4842535;28;22651;-53
2023/04/20 09:21:55;;;;;;;11.82;6.88;;;6.20;99.90;;;;;;4845384;28;20136;-56
2023/04/20 09:25:08;;;;;;;11.07;6.78;;;6.40;99.90;;;;;;4831694;28;20143;-56
2023/04/20 09:27:53;;;;;;;10.93;6.88;;;6.60;99.90;;;;;;4842407;28;20417;-56
2023/04/20 09:30:39;;;;;;;15.07;6.78;;;6.70;99.90;;;;;;4880359;28;20357;-54
2023/04/20 09:33:10;;;;;;;9.85;5.88;;;6.80;99.90;;;;;;4981270;28;20037;-56
2023/04/20 09:36:24;;;;;;;13.32;6.88;;;6.80;99.90;;;;;;4904278;28;20462;-53
2023/04/20 09:43:37;;;;;;;11.77;6.70;;;6.50;99.90;;;;;;4928114;28;21229;-46
2023/04/20 09:46:50;;;;;;;12.13;7.50;;;6.50;99.90;;;;;;4867558;28;20593;-44
2023/04/20 09:49:49;;;;;;;11.25;7.07;;;6.50;99.90;;;;;;4852064;28;23099;-48
2023/04/20 09:52:20;;;;;;;13.80;7.45;;;6.60;99.90;;;;;;4896812;28;20572;-50
2023/04/20 09:54:46;;;;;;;9.73;7.00;;;6.70;99.90;;;;;;4850970;28;20127;-44
2023/04/20 09:57:13;;;;;;;12.80;7.15;;;6.70;99.90;;;;;;4865621;28;23035;-45
2023/04/20 10:00:05;;;;;;;10.38;7.93;;;6.80;99.90;;;;;;4862418;28;20513;-46
2023/04/20 10:02:38;;;;;;;11.00;6.88;;;6.80;99.90;;;;;;4829314;28;20408;-43
2023/04/20 10:05:34;;;;;;;10.50;6.72;;;7.00;99.90;;;;;;4837899;28;20119;-54
2023/04/20 10:08:06;;;;;;;11.70;6.63;;;6.90;99.90;;;;;;4860094;28;20064;-53
2023/04/20 10:11:03;;;;;;;12.98;8.20;;;7.70;99.90;;;;;;4844178;28;20033;-55
2023/04/20 10:13:32;;;;;;;8.98;6.00;;;6.90;99.90;;;;;;4870408;28;21169;-53
2023/04/20 10:16:17;;;;;;;10.55;7.55;;;6.60;99.90;;;;;;4880451;28;20041;-58
2023/04/20 10:22:56;;;;;;;9.65;6.40;;;6.90;99.90;;;;;;4979666;28;20067;-57
2023/04/20 10:29:34;;;;;;;12.23;6.65;;;7.00;99.90;;;;;;4979485;28;20819;-58
2023/04/20 10:35:25;;;;;;;11.38;7.53;;;6.90;99.90;;;;;;4978623;28;20083;-51
2023/04/20 10:41:26;;;;;;;12.75;7.53;;;6.90;99.90;;;;;;4982754;28;20450;-53
2023/04/20 10:47:43;;;;;;;;;;;;;;;;;;;;;
2023/04/20 11:07:03;;;;;;;;;;;8.00;99.90;;;;;;5030092;28;20083;-55
2023/04/20 11:09:29;;;;;;;10.90;8.18;;;8.10;99.90;;;;;;5032477;28;19921;-55
2023/04/20 11:11:59;;;;;;;14.25;8.23;;;8.00;99.90;;;;;;5023438;28;20048;-55
2023/04/20 11:14:25;;;;;;;12.68;7.55;;;8.40;99.90;;;;;;5012382;28;20075;-56
2023/04/20 11:16:51;;;;;;;12.38;8.75;;;7.90;99.90;;;;;;5028073;28;20336;-56
2023/04/20 11:19:43;;;;;;;11.95;8.13;;;7.70;99.90;;;;;;5031304;28;20045;-56
2023/04/20 11:22:21;;;;;;;12.30;8.75;;;7.70;99.90;;;;;;5030879;28;20049;-56
2023/04/20 11:24:46;;;;;;;11.98;8.45;;;8.10;99.90;;;;;;5033034;28;20503;-56
2023/04/20 11:27:23;;;;;;;15.10;10.00;;;8.10;99.90;;;;;;5028064;28;20045;-56
2023/04/20 11:29:57;;;;;;;13.23;10.20;;;8.30;99.90;;;;;;5027484;28;20041;-56
2023/04/20 11:32:23;;;;;;;14.32;10.60;;;8.90;99.90;;;;;;5031648;28;20037;-56
2023/04/20 11:35:01;;;;;;;14.35;9.57;;;9.00;99.90;;;;;;5037226;28;20047;-57
2023/04/20 11:37:28;;;;;;;15.02;10.25;;;9.20;99.90;;;;;;5036657;28;20663;-57
2023/04/20 11:40:08;;;;;;;12.65;10.10;;;9.40;99.90;;;;;;5029032;28;20044;-57
2023/04/20 11:42:34;;;;;;;13.75;9.68;;;9.60;99.90;;;;;;5024378;28;20154;-56
2023/04/20 11:45:00;;;;;;;13.93;10.25;;;9.70;99.90;;;;;;5029111;28;20075;-56
2023/04/20 11:47:26;;;;;;;17.98;10.95;;;9.90;99.90;;;;;;5029278;28;20072;-56
2023/04/20 11:49:52;;;;;;;16.08;10.40;;;10.10;99.90;;;;;;5032649;28;20053;-56
2023/04/20 11:52:18;;;;;;;12.20;7.80;;;10.30;99.90;;;;;;5032297;28;20123;-56
2023/04/20 11:54:43;;;;;;;9.52;7.45;;;10.30;99.90;;;;;;5026637;28;20041;-57
2023/04/20 11:57:09;;;;;;;9.40;6.50;;;10.10;99.90;;;;;;5030290;28;20040;-56
2023/04/20 11:59:35;;;;;;;11.95;6.70;;;9.90;99.90;;;;;;5036591;28;20403;-57
2023/04/20 12:02:02;;;;;;;12.20;7.53;;;9.90;99.90;;;;;;5018393;28;20044;-55
2023/04/20 12:04:30;;;;;;;11.50;7.53;;;9.90;99.90;;;;;;5036283;28;20041;-57
2023/04/20 12:06:58;;;;;;;10.13;8.50;;;10.10;99.90;;;;;;5039607;28;20091;-57
2023/04/20 12:09:27;;;;;;;13.18;8.30;;;10.30;99.90;;;;;;5031089;28;20452;-57
2023/04/20 12:11:53;;;;;;;11.15;8.05;;;10.30;99.90;;;;;;5028606;28;20041;-56
2023/04/20 12:14:18;;;;;;;11.20;7.88;;;10.20;99.90;;;;;;5011633;28;20099;-57
2023/04/20 12:16:44;;;;;;;12.20;7.55;;;10.10;99.90;;;;;;5034620;28;20053;-57
2023/04/20 12:19:10;;;;;;;11.93;7.93;;;10.30;99.90;;;;;;5028141;28;20124;-57
2023/04/20 12:21:36;;;;;;;9.68;7.03;;;10.00;99.90;;;;;;5028430;28;20042;-57
2023/04/20 12:24:02;;;;;;;13.70;7.78;;;10.20;99.90;;;;;;5013209;28;20687;-57
2023/04/20 12:26:28;;;;;;;10.02;7.63;;;10.00;99.90;;;;;;5037392;28;20048;-57
2023/04/20 12:28:54;;;;;;;14.25;9.50;;;9.90;99.90;;;;;;5020916;28;20483;-56
2023/04/20 12:31:20;;;;;;;11.48;8.55;;;10.10;99.90;;;;;;5029088;28;20077;-57
2023/04/20 12:33:45;;;;;;;10.07;7.60;;;10.20;99.90;;;;;;5035101;28;20050;-57
2023/04/20 12:36:11;;;;;;;9.65;7.57;;;10.30;99.90;;;;;;5035114;28;20033;-56
2023/04/20 12:38:37;;;;;;;10.23;8.00;;;10.20;99.90;;;;;;5030343;28;20061;-56
2023/04/20 12:41:05;;;;;;;14.00;8.75;;;10.40;99.90;;;;;;5028393;28;20294;-57
2023/04/20 12:43:31;;;;;;;12.20;7.40;;;10.40;99.90;;;;;;5006939;28;20054;-56
2023/04/20 12:45:57;;;;;;;8.73;6.82;;;10.40;99.90;;;;;;5025409;28;20046;-56
2023/04/20 12:48:22;;;;;;;12.32;7.93;;;10.30;99.90;;;;;;5006737;28;20088;-57
2023/04/20 12:50:49;;;;;;;11.18;8.13;;;10.10;99.90;;;;;;5036821;28;20053;-56
2023/04/20 12:53:15;;;;;;;11.23;8.07;;;10.10;99.90;;;;;;5032390;28;20092;-56
2023/04/20 12:55:41;;;;;;;11.90;8.05;;;10.20;99.90;;;;;;5028232;28;20479;-57
2023/04/20 12:58:06;;;;;;;9.65;7.55;;;10.20;99.90;;;;;;5033015;28;20056;-56
2023/04/20 13:00:32;;;;;;;11.85;8.20;;;11.00;99.90;;;;;;5033403;28;20156;-57
2023/04/20 13:02:58;;;;;;;10.73;8.30;;;10.80;99.90;;;;;;5030413;28;20044;-56
2023/04/20 13:05:24;;;;;;;10.90;8.38;;;11.00;99.90;;;;;;5026751;28;20546;-57
2023/04/20 13:07:50;;;;;;;11.00;6.70;;;11.20;99.90;;;;;;5031708;28;20492;-57
2023/04/20 13:10:16;;;;;;;8.07;6.50;;;11.30;99.90;;;;;;5031302;28;20041;-57
2023/04/20 13:12:42;;;;;;;11.40;7.68;;;11.10;99.90;;;;;;5027502;28;20048;-56
2023/04/20 13:15:08;;;;;;;8.30;6.28;;;11.00;99.90;;;;;;5032816;28;20045;-57
2023/04/20 13:17:34;;;;;;;10.10;7.15;;;11.00;99.90;;;;;;5037000;28;20092;-56
2023/04/20 13:20:00;;;;;;;10.40;6.78;;;10.90;99.90;;;;;;5038663;28;20049;-56
2023/04/20 13:22:26;;;;;;;9.13;7.13;;;10.90;99.90;;;;;;5034678;28;20134;-56
2023/04/20 13:24:51;;;;;;;11.27;7.90;;;11.20;99.90;;;;;;5030990;28;20049;-55
2023/04/20 13:27:17;;;;;;;10.38;7.97;;;11.00;99.90;;;;;;5037622;28;20714;-56
2023/04/20 13:29:43;;;;;;;8.98;7.18;;;11.00;99.90;;;;;;5036175;28;20045;-56
2023/04/20 13:32:09;;;;;;;9.57;7.32;;;11.10;99.90;;;;;;5031825;28;20044;-57
2023/04/20 13:34:35;;;;;;;10.48;7.75;;;11.00;99.90;;;;;;5030398;28;20052;-56
2023/04/20 13:37:00;;;;;;;10.43;6.80;;;11.10;99.90;;;;;;5034316;28;20049;-56
2023/04/20 13:39:26;;;;;;;10.15;7.07;;;11.10;99.90;;;;;;5015779;28;20080;-57
2023/04/20 13:41:52;;;;;;;9.15;6.43;;;11.00;99.90;;;;;;5034106;28;20089;-57
2023/04/20 13:44:18;;;;;;;10.32;7.80;;;10.90;99.90;;;;;;5039388;28;20052;-56
2023/04/20 13:46:45;;;;;;;8.40;6.25;;;10.80;99.90;;;;;;5034770;28;20037;-56
2023/04/20 13:49:11;;;;;;;10.30;7.25;;;10.80;99.90;;;;;;5030760;28;20053;-56